sensor_id;sensor_type;location;lat;lon;timestamp;pressure;altitude;pressure_sealevel;temperature;humidity
19150;BME280;9707;49.158;8.632;2022-09-01T00:02:04;100582.72;;;27.54;37.86
19150;BME280;9707;49.158;8.632;2022-09-01T00:04:34;100581.88;;;27.53;37.65
19150;BME280;9707;49.158;8.632;2022-09-01T00:07:06;100581.03;;;27.53;38.05
19150;BME280;9707;49.158;8.632;2022-09-01T00:09:32;100581.03;;;27.53;37.63
19150;BME280;9707;49.158;8.632;2022-09-01T00:11:58;100575.53;;;27.53;37.83
19150;BME280;9707;49.158;8.632;2022-09-01T00:14:27;100590.25;;;27.52;37.67
19150;BME280;9707;49.158;8.632;2022-09-01T00:16:53;100589.38;;;27.51;37.42
19150;BME280;9707;49.158;8.632;2022-09-01T00:19:20;100590.25;;;27.52;37.86
19150;BME280;9707;49.158;8.632;2022-09-01T00:21:46;100586.81;;;27.50;37.87
19150;BME280;9707;49.158;8.632;2022-09-01T00:24:13;100591.44;;;27.49;37.46
19150;BME280;9707;49.158;8.632;2022-09-01T00:26:39;100591.59;;;27.48;37.49
19150;BME280;9707;49.158;8.632;2022-09-01T00:29:05;100590.91;;;27.46;37.36
19150;BME280;9707;49.158;8.632;2022-09-01T00:31:31;100590.91;;;27.46;37.33
19150;BME280;9707;49.158;8.632;2022-09-01T00:33:57;100585.75;;;27.43;37.35
19150;BME280;9707;49.158;8.632;2022-09-01T00:36:22;100588.47;;;27.43;37.65
19150;BME280;9707;49.158;8.632;2022-09-01T00:38:50;100593.97;;;27.43;37.36
19150;BME280;9707;49.158;8.632;2022-09-01T00:41:19;100590.53;;;27.41;37.38
19150;BME280;9707;49.158;8.632;2022-09-01T00:43:50;100586.94;;;27.40;37.65
19150;BME280;9707;49.158;8.632;2022-09-01T00:46:29;100589.81;;;27.39;37.66
19150;BME280;9707;49.158;8.632;2022-09-01T00:49:03;100593.59;;;27.38;37.48
19150;BME280;9707;49.158;8.632;2022-09-01T00:51:32;100603.50;;;27.39;37.46
19150;BME280;9707;49.158;8.632;2022-09-01T00:53:59;100587.09;;;27.39;37.75
19150;BME280;9707;49.158;8.632;2022-09-01T00:56:26;100588.09;;;27.38;37.64
19150;BME280;9707;49.158;8.632;2022-09-01T00:58:52;100593.72;;;27.36;37.71
19150;BME280;9707;49.158;8.632;2022-09-01T01:01:18;100601.09;;;27.36;37.84
19150;BME280;9707;49.158;8.632;2022-09-01T01:03:53;100594.91;;;27.34;37.41
19150;BME280;9707;49.158;8.632;2022-09-01T01:09:42;100592.69;;;27.29;37.58
19150;BME280;9707;49.158;8.632;2022-09-01T01:12:09;100588.22;;;27.28;37.43
19150;BME280;9707;49.158;8.632;2022-09-01T01:14:45;100585.66;;;27.27;37.50
19150;BME280;9707;49.158;8.632;2022-09-01T01:17:14;100586.69;;;27.26;37.40
19150;BME280;9707;49.158;8.632;2022-09-01T01:19:42;100582.19;;;27.25;37.52
19150;BME280;9707;49.158;8.632;2022-09-01T01:25:51;100590.91;;;27.20;37.94
19150;BME280;9707;49.158;8.632;2022-09-01T01:28:20;100587.28;;;27.20;37.62
19150;BME280;9707;49.158;8.632;2022-09-01T01:30:56;100582.84;;;27.19;37.73
19150;BME280;9707;49.158;8.632;2022-09-01T01:33:35;100580.25;;;27.17;37.77
19150;BME280;9707;49.158;8.632;2022-09-01T01:36:11;100583.88;;;27.18;37.96
19150;BME280;9707;49.158;8.632;2022-09-01T01:38:44;100581.13;;;27.18;37.81
19150;BME280;9707;49.158;8.632;2022-09-01T01:41:11;100573.91;;;27.17;38.17
19150;BME280;9707;49.158;8.632;2022-09-01T01:43:38;100572.38;;;27.14;38.14
19150;BME280;9707;49.158;8.632;2022-09-01T01:46:06;100572.22;;;27.16;38.04
19150;BME280;9707;49.158;8.632;2022-09-01T01:48:32;100568.59;;;27.15;38.16
19150;BME280;9707;49.158;8.632;2022-09-01T01:51:00;100570.47;;;27.15;38.32
19150;BME280;9707;49.158;8.632;2022-09-01T01:53:26;100571.50;;;27.14;38.10
19150;BME280;9707;49.158;8.632;2022-09-01T01:55:52;100573.19;;;27.15;38.01
19150;BME280;9707;49.158;8.632;2022-09-01T01:58:19;100578.00;;;27.13;38.20
19150;BME280;9707;49.158;8.632;2022-09-01T02:00:46;100576.28;;;27.12;38.26
19150;BME280;9707;49.158;8.632;2022-09-01T02:03:14;100575.41;;;27.11;38.12
19150;BME280;9707;49.158;8.632;2022-09-01T02:05:45;100567.34;;;27.10;38.14
19150;BME280;9707;49.158;8.632;2022-09-01T02:08:12;100575.75;;;27.08;38.24
19150;BME280;9707;49.158;8.632;2022-09-01T02:10:42;100575.75;;;27.08;37.92
19150;BME280;9707;49.158;8.632;2022-09-01T02:13:09;100585.81;;;27.08;37.96
19150;BME280;9707;49.158;8.632;2022-09-01T02:15:43;100579.66;;;27.06;38.25
19150;BME280;9707;49.158;8.632;2022-09-01T02:18:15;100584.41;;;27.04;38.10
19150;BME280;9707;49.158;8.632;2022-09-01T02:20:43;100586.47;;;27.02;37.97
19150;BME280;9707;49.158;8.632;2022-09-01T02:23:09;100590.22;;;27.01;37.90
19150;BME280;9707;49.158;8.632;2022-09-01T02:25:41;100587.47;;;27.01;38.05
19150;BME280;9707;49.158;8.632;2022-09-01T02:28:09;100589.50;;;26.99;37.94
19150;BME280;9707;49.158;8.632;2022-09-01T02:30:41;100591.53;;;26.97;38.06
19150;BME280;9707;49.158;8.632;2022-09-01T02:33:07;100584.38;;;26.96;38.21
19150;BME280;9707;49.158;8.632;2022-09-01T02:35:36;100587.94;;;26.96;38.25
19150;BME280;9707;49.158;8.632;2022-09-01T02:38:03;100594.56;;;26.94;38.04
19150;BME280;9707;49.158;8.632;2022-09-01T02:40:30;100585.69;;;26.92;38.19
19150;BME280;9707;49.158;8.632;2022-09-01T02:42:59;100583.84;;;26.92;38.47
19150;BME280;9707;49.158;8.632;2022-09-01T02:45:26;100589.44;;;26.91;38.17
19150;BME280;9707;49.158;8.632;2022-09-01T02:47:54;100588.44;;;26.92;38.55
19150;BME280;9707;49.158;8.632;2022-09-01T02:50:22;100586.72;;;26.91;38.55
19150;BME280;9707;49.158;8.632;2022-09-01T02:52:51;100587.75;;;26.90;38.33
19150;BME280;9707;49.158;8.632;2022-09-01T02:55:18;100583.25;;;26.89;38.61
19150;BME280;9707;49.158;8.632;2022-09-01T02:57:47;100586.00;;;26.89;38.88
19150;BME280;9707;49.158;8.632;2022-09-01T03:00:14;100591.47;;;26.89;38.54
19150;BME280;9707;49.158;8.632;2022-09-01T03:03:00;100583.59;;;26.86;38.51
19150;BME280;9707;49.158;8.632;2022-09-01T03:05:28;100588.03;;;26.87;38.67
19150;BME280;9707;49.158;8.632;2022-09-01T03:08:02;100592.63;;;26.86;38.57
19150;BME280;9707;49.158;8.632;2022-09-01T03:10:33;100591.94;;;26.84;38.46
19150;BME280;9707;49.158;8.632;2022-09-01T03:13:13;100588.34;;;26.84;38.61
19150;BME280;9707;49.158;8.632;2022-09-01T03:15:39;100584.06;;;26.81;38.69
19150;BME280;9707;49.158;8.632;2022-09-01T03:18:06;100587.66;;;26.82;38.72
19150;BME280;9707;49.158;8.632;2022-09-01T03:20:33;100584.22;;;26.80;38.65
19150;BME280;9707;49.158;8.632;2022-09-01T03:23:01;100581.50;;;26.80;38.59
19150;BME280;9707;49.158;8.632;2022-09-01T03:25:30;100579.75;;;26.79;38.57
19150;BME280;9707;49.158;8.632;2022-09-01T03:27:56;100580.78;;;26.78;38.84
19150;BME280;9707;49.158;8.632;2022-09-01T03:30:31;100576.34;;;26.77;38.67
19150;BME280;9707;49.158;8.632;2022-09-01T03:32:59;100579.06;;;26.77;38.73
19150;BME280;9707;49.158;8.632;2022-09-01T03:35:26;100591.88;;;26.76;38.58
19150;BME280;9707;49.158;8.632;2022-09-01T03:37:53;100582.81;;;26.76;38.70
19150;BME280;9707;49.158;8.632;2022-09-01T03:40:20;100577.50;;;26.74;38.78
19150;BME280;9707;49.158;8.632;2022-09-01T03:42:46;100581.13;;;26.75;38.52
19150;BME280;9707;49.158;8.632;2022-09-01T03:45:11;100589.31;;;26.75;38.69
19150;BME280;9707;49.158;8.632;2022-09-01T03:47:41;100590.31;;;26.74;38.78
19150;BME280;9707;49.158;8.632;2022-09-01T03:50:10;100590.50;;;26.72;38.66
19150;BME280;9707;49.158;8.632;2022-09-01T03:52:57;100585.16;;;26.71;38.67
19150;BME280;9707;49.158;8.632;2022-09-01T03:55:30;100586.19;;;26.70;38.72
19150;BME280;9707;49.158;8.632;2022-09-01T03:57:59;100583.75;;;26.67;38.84
19150;BME280;9707;49.158;8.632;2022-09-01T04:00:27;100599.13;;;26.68;38.63
19150;BME280;9707;49.158;8.632;2022-09-01T04:02:56;100589.22;;;26.67;38.99
19150;BME280;9707;49.158;8.632;2022-09-01T04:05:24;100593.66;;;26.68;38.83
19150;BME280;9707;49.158;8.632;2022-09-01T04:07:57;100587.50;;;26.66;38.76
19150;BME280;9707;49.158;8.632;2022-09-01T04:10:23;100584.78;;;26.66;38.68
19150;BME280;9707;49.158;8.632;2022-09-01T04:12:49;100583.91;;;26.65;38.54
19150;BME280;9707;49.158;8.632;2022-09-01T04:15:16;100594.84;;;26.65;38.52
19150;BME280;9707;49.158;8.632;2022-09-01T04:17:45;100593.28;;;26.63;38.49
19150;BME280;9707;49.158;8.632;2022-09-01T04:20:37;100595.31;;;26.61;38.91
19150;BME280;9707;49.158;8.632;2022-09-01T04:23:29;100591.88;;;26.59;38.80
19150;BME280;9707;49.158;8.632;2022-09-01T04:26:18;100585.72;;;26.57;38.60
19150;BME280;9707;49.158;8.632;2022-09-01T04:28:48;100594.94;;;26.56;38.59
19150;BME280;9707;49.158;8.632;2022-09-01T04:31:18;100587.72;;;26.55;38.75
19150;BME280;9707;49.158;8.632;2022-09-01T04:33:46;100594.94;;;26.56;38.49
19150;BME280;9707;49.158;8.632;2022-09-01T04:38:44;100595.19;;;26.53;38.66
19150;BME280;9707;49.158;8.632;2022-09-01T04:41:09;100600.66;;;26.53;38.62
19150;BME280;9707;49.158;8.632;2022-09-01T04:43:40;100595.19;;;26.53;38.46
19150;BME280;9707;49.158;8.632;2022-09-01T04:46:06;100587.16;;;26.51;38.42
19150;BME280;9707;49.158;8.632;2022-09-01T04:48:31;100591.78;;;26.51;38.60
19150;BME280;9707;49.158;8.632;2022-09-01T04:50:59;100583.72;;;26.49;38.62
19150;BME280;9707;49.158;8.632;2022-09-01T04:53:25;100584.59;;;26.50;38.58
19150;BME280;9707;49.158;8.632;2022-09-01T04:55:51;100589.19;;;26.49;38.50
19150;BME280;9707;49.158;8.632;2022-09-01T04:58:18;100584.91;;;26.47;38.33
19150;BME280;9707;49.158;8.632;2022-09-01T05:00:47;100591.25;;;26.47;38.59
19150;BME280;9707;49.158;8.632;2022-09-01T05:03:16;100590.38;;;26.47;38.67
19150;BME280;9707;49.158;8.632;2022-09-01T05:05:45;100593.09;;;26.47;38.44
19150;BME280;9707;49.158;8.632;2022-09-01T05:08:14;100591.53;;;26.44;38.66
19150;BME280;9707;49.158;8.632;2022-09-01T05:10:43;100603.34;;;26.45;38.33
19150;BME280;9707;49.158;8.632;2022-09-01T05:13:10;100607.06;;;26.44;38.27
19150;BME280;9707;49.158;8.632;2022-09-01T05:15:40;100599.88;;;26.43;38.76
19150;BME280;9707;49.158;8.632;2022-09-01T05:18:20;100592.69;;;26.42;38.29
19150;BME280;9707;49.158;8.632;2022-09-01T05:20:51;100603.63;;;26.42;38.70
19150;BME280;9707;49.158;8.632;2022-09-01T05:23:17;100591.00;;;26.41;38.51
19150;BME280;9707;49.158;8.632;2022-09-01T05:25:46;100601.91;;;26.41;38.68
19150;BME280;9707;49.158;8.632;2022-09-01T05:28:14;100591.81;;;26.41;38.74
19150;BME280;9707;49.158;8.632;2022-09-01T05:30:40;100597.00;;;26.44;39.21
19150;BME280;9707;49.158;8.632;2022-09-01T05:33:08;100592.41;;;26.45;39.06
19150;BME280;9707;49.158;8.632;2022-09-01T05:35:37;100595.53;;;26.50;39.27
19150;BME280;9707;49.158;8.632;2022-09-01T05:38:03;100597.25;;;26.51;38.96
19150;BME280;9707;49.158;8.632;2022-09-01T05:40:28;100598.66;;;26.55;39.13
19150;BME280;9707;49.158;8.632;2022-09-01T05:42:54;100599.53;;;26.55;39.50
19150;BME280;9707;49.158;8.632;2022-09-01T05:45:20;100604.84;;;26.57;39.26
19150;BME280;9707;49.158;8.632;2022-09-01T05:47:47;100601.81;;;26.60;39.26
19150;BME280;9707;49.158;8.632;2022-09-01T05:50:14;100612.56;;;26.61;39.27
19150;BME280;9707;49.158;8.632;2022-09-01T05:52:41;100606.09;;;26.62;39.37
19150;BME280;9707;49.158;8.632;2022-09-01T05:55:08;100610.41;;;26.65;39.49
19150;BME280;9707;49.158;8.632;2022-09-01T05:57:35;100613.28;;;26.63;39.61
19150;BME280;9707;49.158;8.632;2022-09-01T06:00:06;100619.28;;;26.67;39.77
19150;BME280;9707;49.158;8.632;2022-09-01T06:02:36;100621.00;;;26.68;39.92
19150;BME280;9707;49.158;8.632;2022-09-01T06:05:04;100621.72;;;26.70;39.84
19150;BME280;9707;49.158;8.632;2022-09-01T06:07:29;100617.97;;;26.71;39.96
19150;BME280;9707;49.158;8.632;2022-09-01T06:09:55;100620.38;;;26.74;39.88
19150;BME280;9707;49.158;8.632;2022-09-01T06:12:21;100618.66;;;26.73;40.21
19150;BME280;9707;49.158;8.632;2022-09-01T06:14:50;100619.19;;;26.76;39.99
19150;BME280;9707;49.158;8.632;2022-09-01T06:17:19;100613.44;;;26.79;40.12
19150;BME280;9707;49.158;8.632;2022-09-01T06:19:47;100614.31;;;26.80;39.87
19150;BME280;9707;49.158;8.632;2022-09-01T06:22:13;100613.97;;;26.83;39.75
19150;BME280;9707;49.158;8.632;2022-09-01T06:24:38;100611.09;;;26.84;39.93
19150;BME280;9707;49.158;8.632;2022-09-01T06:27:06;100608.19;;;26.86;39.81
19150;BME280;9707;49.158;8.632;2022-09-01T06:29:35;100611.78;;;26.86;40.27
19150;BME280;9707;49.158;8.632;2022-09-01T06:32:04;100602.41;;;26.89;39.93
19150;BME280;9707;49.158;8.632;2022-09-01T06:34:32;100608.88;;;26.88;39.86
19150;BME280;9707;49.158;8.632;2022-09-01T06:37:00;100613.19;;;26.90;40.33
19150;BME280;9707;49.158;8.632;2022-09-01T06:39:25;100605.84;;;26.91;40.13
19150;BME280;9707;49.158;8.632;2022-09-01T06:41:51;100605.69;;;26.92;39.80
19150;BME280;9707;49.158;8.632;2022-09-01T06:44:18;100611.84;;;26.94;39.92
19150;BME280;9707;49.158;8.632;2022-09-01T06:46:47;100612.72;;;26.95;40.05
19150;BME280;9707;49.158;8.632;2022-09-01T06:49:13;100617.03;;;26.97;39.75
19150;BME280;9707;49.158;8.632;2022-09-01T06:51:38;100620.59;;;26.98;40.23
19150;BME280;9707;49.158;8.632;2022-09-01T06:54:03;100613.13;;;27.00;39.81
19150;BME280;9707;49.158;8.632;2022-09-01T06:56:31;100617.56;;;27.01;40.01
19150;BME280;9707;49.158;8.632;2022-09-01T06:58:58;100625.41;;;27.04;40.13
19150;BME280;9707;49.158;8.632;2022-09-01T07:01:28;100623.56;;;27.04;40.11
19150;BME280;9707;49.158;8.632;2022-09-01T07:03:54;100625.13;;;27.07;40.11
19150;BME280;9707;49.158;8.632;2022-09-01T07:06:24;100631.28;;;27.09;39.95
19150;BME280;9707;49.158;8.632;2022-09-01T07:08:52;100626.69;;;27.09;39.92
19150;BME280;9707;49.158;8.632;2022-09-01T07:11:22;100630.25;;;27.10;39.83
19150;BME280;9707;49.158;8.632;2022-09-01T07:13:57;100636.44;;;27.12;40.06
19150;BME280;9707;49.158;8.632;2022-09-01T07:16:27;100645.50;;;27.12;39.94
19150;BME280;9707;49.158;8.632;2022-09-01T07:18:55;100634.41;;;27.14;40.33
19150;BME280;9707;49.158;8.632;2022-09-01T07:21:22;100644.16;;;27.16;40.01
19150;BME280;9707;49.158;8.632;2022-09-01T07:23:48;100641.31;;;27.18;39.88
19150;BME280;9707;49.158;8.632;2022-09-01T07:26:13;100643.88;;;27.19;39.67
19150;BME280;9707;49.158;8.632;2022-09-01T07:28:44;100641.16;;;27.19;39.92
19150;BME280;9707;49.158;8.632;2022-09-01T07:31:22;100648.34;;;27.20;39.49
19150;BME280;9707;49.158;8.632;2022-09-01T07:33:50;100645.44;;;27.22;39.61
19150;BME280;9707;49.158;8.632;2022-09-01T07:36:17;100645.28;;;27.23;39.66
19150;BME280;9707;49.158;8.632;2022-09-01T07:38:43;100651.59;;;27.24;39.94
19150;BME280;9707;49.158;8.632;2022-09-01T07:41:10;100649.59;;;27.26;39.73
19150;BME280;9707;49.158;8.632;2022-09-01T07:43:38;100653.88;;;27.28;39.84
19150;BME280;9707;49.158;8.632;2022-09-01T07:46:06;100650.97;;;27.30;39.91
19150;BME280;9707;49.158;8.632;2022-09-01T07:48:31;100647.22;;;27.31;39.84
19150;BME280;9707;49.158;8.632;2022-09-01T07:50:57;100650.50;;;27.34;39.78
19150;BME280;9707;49.158;8.632;2022-09-01T07:53:23;100645.72;;;27.36;40.07
19150;BME280;9707;49.158;8.632;2022-09-01T07:55:50;100652.75;;;27.39;39.36
19150;BME280;9707;49.158;8.632;2022-09-01T07:58:19;100647.13;;;27.40;39.88
19150;BME280;9707;49.158;8.632;2022-09-01T08:00:46;100646.97;;;27.42;39.48
19150;BME280;9707;49.158;8.632;2022-09-01T08:03:14;100652.28;;;27.43;39.59
19150;BME280;9707;49.158;8.632;2022-09-01T08:05:40;100653.13;;;27.44;39.31
19150;BME280;9707;49.158;8.632;2022-09-01T08:08:06;100662.22;;;27.44;39.33
19150;BME280;9707;49.158;8.632;2022-09-01T08:10:32;100653.13;;;27.44;39.30
19150;BME280;9707;49.158;8.632;2022-09-01T08:12:57;100653.13;;;27.44;39.14
19150;BME280;9707;49.158;8.632;2022-09-01T08:15:24;100652.97;;;27.45;39.20
19150;BME280;9707;49.158;8.632;2022-09-01T08:17:49;100658.28;;;27.47;39.10
19150;BME280;9707;49.158;8.632;2022-09-01T08:20:15;100660.00;;;27.48;39.08
19150;BME280;9707;49.158;8.632;2022-09-01T08:22:40;100658.97;;;27.49;38.84
19150;BME280;9707;49.158;8.632;2022-09-01T08:25:07;100666.88;;;27.52;38.80
19150;BME280;9707;49.158;8.632;2022-09-01T08:27:34;100658.66;;;27.52;38.82
19150;BME280;9707;49.158;8.632;2022-09-01T08:30:02;100662.09;;;27.54;39.24
19150;BME280;9707;49.158;8.632;2022-09-01T08:32:29;100664.53;;;27.57;39.15
19150;BME280;9707;49.158;8.632;2022-09-01T08:34:54;100669.66;;;27.60;39.15
19150;BME280;9707;49.158;8.632;2022-09-01T08:37:21;100664.75;;;27.63;39.28
19150;BME280;9707;49.158;8.632;2022-09-01T08:39:46;100663.56;;;27.66;38.67
19150;BME280;9707;49.158;8.632;2022-09-01T08:45:32;100671.13;;;27.72;38.93
19150;BME280;9707;49.158;8.632;2022-09-01T08:48:09;100657.09;;;27.75;38.55
19150;BME280;9707;49.158;8.632;2022-09-01T08:50:38;100662.25;;;27.78;38.90
19150;BME280;9707;49.158;8.632;2022-09-01T08:53:10;100665.72;;;27.80;38.84
19150;BME280;9707;49.158;8.632;2022-09-01T08:55:43;100661.78;;;27.82;38.37
19150;BME280;9707;49.158;8.632;2022-09-01T08:58:11;100654.44;;;27.83;38.48
19150;BME280;9707;49.158;8.632;2022-09-01T09:00:45;100657.88;;;27.85;38.34
19150;BME280;9707;49.158;8.632;2022-09-01T09:17:35;100658.28;;;27.98;38.26
19150;BME280;9707;49.158;8.632;2022-09-01T09:20:04;100662.59;;;28.00;37.83
19150;BME280;9707;49.158;8.632;2022-09-01T09:22:31;100655.91;;;28.03;38.12
19150;BME280;9707;49.158;8.632;2022-09-01T09:25:08;100661.03;;;28.06;38.07
19150;BME280;9707;49.158;8.632;2022-09-01T09:27:38;100661.75;;;28.08;37.32
19150;BME280;9707;49.158;8.632;2022-09-01T09:30:20;100652.34;;;28.10;37.38
19150;BME280;9707;49.158;8.632;2022-09-01T09:35:42;100652.19;;;28.12;37.49
19150;BME280;9707;49.158;8.632;2022-09-01T09:41:19;100646.88;;;28.18;37.74
19150;BME280;9707;49.158;8.632;2022-09-01T09:43:48;100642.97;;;28.21;37.52
19150;BME280;9707;49.158;8.632;2022-09-01T09:51:36;100639.22;;;28.30;36.92
19150;BME280;9707;49.158;8.632;2022-09-01T09:54:14;100628.78;;;28.33;36.93
19150;BME280;9707;49.158;8.632;2022-09-01T09:56:41;100634.81;;;28.37;36.97
19150;BME280;9707;49.158;8.632;2022-09-01T09:59:42;100630.94;;;28.39;37.24
19150;BME280;9707;49.158;8.632;2022-09-01T10:04:57;100636.06;;;28.42;36.78
19150;BME280;9707;49.158;8.632;2022-09-01T10:07:35;100634.88;;;28.45;36.60
19150;BME280;9707;49.158;8.632;2022-09-01T10:10:05;100633.84;;;28.46;36.46
19150;BME280;9707;49.158;8.632;2022-09-01T10:12:31;100624.63;;;28.47;36.49
19150;BME280;9707;49.158;8.632;2022-09-01T10:15:06;100627.88;;;28.50;36.50
19150;BME280;9707;49.158;8.632;2022-09-01T10:17:41;100625.63;;;28.54;36.64
19150;BME280;9707;49.158;8.632;2022-09-01T10:20:17;100622.53;;;28.57;36.43
19150;BME280;9707;49.158;8.632;2022-09-01T10:22:46;100620.50;;;28.59;36.20
19150;BME280;9707;49.158;8.632;2022-09-01T10:25:17;100618.59;;;28.59;35.93
19150;BME280;9707;49.158;8.632;2022-09-01T10:27:48;100617.59;;;28.60;36.12
19150;BME280;9707;49.158;8.632;2022-09-01T10:30:20;100614.69;;;28.62;36.31
19150;BME280;9707;49.158;8.632;2022-09-01T10:32:58;100609.75;;;28.65;36.45
19150;BME280;9707;49.158;8.632;2022-09-01T10:35:29;100613.00;;;28.69;36.38
19150;BME280;9707;49.158;8.632;2022-09-01T10:37:57;100610.94;;;28.71;36.94
19150;BME280;9707;49.158;8.632;2022-09-01T10:42:55;100608.53;;;28.76;36.39
19150;BME280;9707;49.158;8.632;2022-09-01T10:45:36;100605.47;;;28.79;35.94
19150;BME280;9707;49.158;8.632;2022-09-01T10:50:51;100599.97;;;28.79;36.22
19150;BME280;9707;49.158;8.632;2022-09-01T11:10:06;100588.66;;;28.90;36.57
19150;BME280;9707;49.158;8.632;2022-09-01T11:14:58;100589.00;;;28.95;35.82
19150;BME280;9707;49.158;8.632;2022-09-01T11:17:30;100584.22;;;28.97;36.37
19150;BME280;9707;49.158;8.632;2022-09-01T11:20:01;100581.16;;;29.00;36.28
19150;BME280;9707;49.158;8.632;2022-09-01T11:36:34;100568.78;;;29.12;36.48
19150;BME280;9707;49.158;8.632;2022-09-01T11:44:11;100573.59;;;29.18;36.17
19150;BME280;9707;49.158;8.632;2022-09-01T11:46:37;100569.47;;;29.22;36.33
19150;BME280;9707;49.158;8.632;2022-09-01T11:49:23;100561.94;;;29.24;36.35
19150;BME280;9707;49.158;8.632;2022-09-01T11:51:50;100559.03;;;29.25;36.31
19150;BME280;9707;49.158;8.632;2022-09-01T11:54:15;100567.06;;;29.27;36.51
19150;BME280;9707;49.158;8.632;2022-09-01T11:56:41;100563.28;;;29.28;36.72
19150;BME280;9707;49.158;8.632;2022-09-01T11:59:06;100562.06;;;29.30;35.77
19150;BME280;9707;49.158;8.632;2022-09-01T12:01:35;100560.19;;;29.31;35.44
19150;BME280;9707;49.158;8.632;2022-09-01T12:04:31;100562.94;;;29.31;36.46
19150;BME280;9707;49.158;8.632;2022-09-01T12:07:04;100562.59;;;29.34;36.81
19150;BME280;9707;49.158;8.632;2022-09-01T12:12:06;100556.75;;;29.37;35.74
19150;BME280;9707;49.158;8.632;2022-09-01T12:14:32;100552.97;;;29.38;36.30
19150;BME280;9707;49.158;8.632;2022-09-01T12:17:04;100544.72;;;29.38;35.95
19150;BME280;9707;49.158;8.632;2022-09-01T12:19:33;100542.69;;;29.40;35.69
19150;BME280;9707;49.158;8.632;2022-09-01T12:22:06;100546.25;;;29.40;34.86
19150;BME280;9707;49.158;8.632;2022-09-01T12:24:44;100549.88;;;29.41;34.13
19150;BME280;9707;49.158;8.632;2022-09-01T12:27:09;100540.59;;;29.42;34.01
19150;BME280;9707;49.158;8.632;2022-09-01T12:29:36;100533.41;;;29.41;34.08
19150;BME280;9707;49.158;8.632;2022-09-01T12:32:03;100536.16;;;29.41;35.09
19150;BME280;9707;49.158;8.632;2022-09-01T12:37:07;100536.66;;;29.44;33.96
19150;BME280;9707;49.158;8.632;2022-09-01T12:39:39;100526.53;;;29.45;34.85
19150;BME280;9707;49.158;8.632;2022-09-01T12:44:48;100523.44;;;29.48;34.88
19150;BME280;9707;49.158;8.632;2022-09-01T12:52:44;100519.47;;;29.50;34.70
19150;BME280;9707;49.158;8.632;2022-09-01T12:55:17;100522.03;;;29.52;35.30
19150;BME280;9707;49.158;8.632;2022-09-01T12:57:49;100526.69;;;29.51;35.25
19150;BME280;9707;49.158;8.632;2022-09-01T13:00:23;100519.81;;;29.55;35.49
19150;BME280;9707;49.158;8.632;2022-09-01T13:02:51;100517.94;;;29.56;34.80
19150;BME280;9707;49.158;8.632;2022-09-01T13:05:52;100523.44;;;29.56;35.53
19150;BME280;9707;49.158;8.632;2022-09-01T13:08:29;100521.38;;;29.58;34.79
19150;BME280;9707;49.158;8.632;2022-09-01T13:11:13;100515.88;;;29.58;34.36
19150;BME280;9707;49.158;8.632;2022-09-01T13:13:39;100515.88;;;29.58;35.00
19150;BME280;9707;49.158;8.632;2022-09-01T13:16:05;100512.94;;;29.59;35.30
19150;BME280;9707;49.158;8.632;2022-09-01T13:18:39;100510.03;;;29.61;35.40
19150;BME280;9707;49.158;8.632;2022-09-01T13:21:05;100499.72;;;29.63;34.88
19150;BME280;9707;49.158;8.632;2022-09-01T13:23:31;100497.84;;;29.63;35.06
19150;BME280;9707;49.158;8.632;2022-09-01T13:25:57;100497.69;;;29.65;35.32
19150;BME280;9707;49.158;8.632;2022-09-01T13:28:23;100485.66;;;29.66;35.07
19150;BME280;9707;49.158;8.632;2022-09-01T13:30:54;100502.78;;;29.68;34.78
19150;BME280;9707;49.158;8.632;2022-09-01T13:33:20;100489.94;;;29.68;35.74
19150;BME280;9707;49.158;8.632;2022-09-01T13:35:47;100491.63;;;29.69;35.18
19150;BME280;9707;49.158;8.632;2022-09-01T13:38:13;100496.94;;;29.71;34.86
19150;BME280;9707;49.158;8.632;2022-09-01T13:40:41;100489.59;;;29.71;34.45
19150;BME280;9707;49.158;8.632;2022-09-01T13:43:07;100485.78;;;29.72;35.24
19150;BME280;9707;49.158;8.632;2022-09-01T13:45:33;100490.25;;;29.73;35.24
19150;BME280;9707;49.158;8.632;2022-09-01T13:47:59;100489.22;;;29.74;35.41
19150;BME280;9707;49.158;8.632;2022-09-01T13:50:25;100494.53;;;29.76;33.95
19150;BME280;9707;49.158;8.632;2022-09-01T13:52:54;100490.06;;;29.75;34.76
19150;BME280;9707;49.158;8.632;2022-09-01T13:55:26;100486.28;;;29.76;33.48
19150;BME280;9707;49.158;8.632;2022-09-01T13:57:52;100482.88;;;29.74;32.62
19150;BME280;9707;49.158;8.632;2022-09-01T14:00:20;100482.88;;;29.74;32.11
19150;BME280;9707;49.158;8.632;2022-09-01T14:02:50;100490.06;;;29.75;33.97
19150;BME280;9707;49.158;8.632;2022-09-01T14:05:29;100485.25;;;29.77;34.01
19150;BME280;9707;49.158;8.632;2022-09-01T14:07:55;100473.91;;;29.80;34.56
19150;BME280;9707;49.158;8.632;2022-09-01T14:10:22;100478.38;;;29.81;34.73
19150;BME280;9707;49.158;8.632;2022-09-01T14:12:49;100479.22;;;29.81;34.45
19150;BME280;9707;49.158;8.632;2022-09-01T14:15:15;100474.56;;;29.82;35.17
19150;BME280;9707;49.158;8.632;2022-09-01T14:17:41;100480.06;;;29.82;34.81
19150;BME280;9707;49.158;8.632;2022-09-01T14:20:12;100473.75;;;29.81;34.10
19150;BME280;9707;49.158;8.632;2022-09-01T14:22:39;100470.13;;;29.81;34.45
19150;BME280;9707;49.158;8.632;2022-09-01T14:25:06;100476.66;;;29.80;34.13
19150;BME280;9707;49.158;8.632;2022-09-01T14:27:32;100467.38;;;29.81;34.31
19150;BME280;9707;49.158;8.632;2022-09-01T14:29:57;100463.75;;;29.80;34.62
19150;BME280;9707;49.158;8.632;2022-09-01T14:32:23;100463.59;;;29.82;34.69
19150;BME280;9707;49.158;8.632;2022-09-01T14:34:52;100462.75;;;29.81;34.89
19150;BME280;9707;49.158;8.632;2022-09-01T14:37:18;100465.13;;;29.84;34.90
19150;BME280;9707;49.158;8.632;2022-09-01T14:39:48;100457.94;;;29.83;34.53
19150;BME280;9707;49.158;8.632;2022-09-01T14:42:14;100455.34;;;29.82;34.04
19150;BME280;9707;49.158;8.632;2022-09-01T14:44:39;100458.97;;;29.82;33.92
19150;BME280;9707;49.158;8.632;2022-09-01T14:47:05;100452.59;;;29.82;34.03
19150;BME280;9707;49.158;8.632;2022-09-01T14:49:31;100450.91;;;29.81;34.21